sensor_id;sensor_type;location;lat;lon;timestamp;P1;durP1;ratioP1;P2;durP2;ratioP2
35959;SDS011;22043;50.970;7.192;2023-07-20T00:00:24;9.15;;;1.40;;
35959;SDS011;22043;50.970;7.192;2023-07-20T00:02:50;5.10;;;1.33;;
35959;SDS011;22043;50.970;7.192;2023-07-20T00:05:16;2.75;;;1.05;;
35959;SDS011;22043;50.970;7.192;2023-07-20T00:07:46;4.45;;;1.13;;
35959;SDS011;22043;50.970;7.192;2023-07-20T00:10:12;3.78;;;1.10;;
35959;SDS011;22043;50.970;7.192;2023-07-20T00:12:38;3.75;;;1.50;;
35959;SDS011;22043;50.970;7.192;2023-07-20T00:15:03;4.28;;;1.10;;
35959;SDS011;22043;50.970;7.192;2023-07-20T00:17:29;2.30;;;1.20;;
35959;SDS011;22043;50.970;7.192;2023-07-20T00:19:54;3.63;;;1.60;;
35959;SDS011;22043;50.970;7.192;2023-07-20T00:22:20;6.25;;;1.63;;
35959;SDS011;22043;50.970;7.192;2023-07-20T00:24:45;3.30;;;1.77;;
35959;SDS011;22043;50.970;7.192;2023-07-20T00:27:11;5.35;;;1.35;;
35959;SDS011;22043;50.970;7.192;2023-07-20T00:29:36;4.22;;;1.23;;
35959;SDS011;22043;50.970;7.192;2023-07-20T00:32:02;2.67;;;1.45;;
35959;SDS011;22043;50.970;7.192;2023-07-20T00:34:30;4.13;;;2.08;;
35959;SDS011;22043;50.970;7.192;2023-07-20T00:36:56;5.63;;;1.85;;
35959;SDS011;22043;50.970;7.192;2023-07-20T00:39:21;3.72;;;1.23;;
35959;SDS011;22043;50.970;7.192;2023-07-20T00:41:47;5.32;;;1.80;;
35959;SDS011;22043;50.970;7.192;2023-07-20T00:44:12;5.65;;;1.83;;
35959;SDS011;22043;50.970;7.192;2023-07-20T00:46:38;7.45;;;1.60;;
35959;SDS011;22043;50.970;7.192;2023-07-20T00:49:03;5.38;;;1.58;;
35959;SDS011;22043;50.970;7.192;2023-07-20T00:51:29;5.13;;;1.60;;
35959;SDS011;22043;50.970;7.192;2023-07-20T00:53:55;5.90;;;1.80;;
35959;SDS011;22043;50.970;7.192;2023-07-20T00:56:20;3.00;;;1.30;;
35959;SDS011;22043;50.970;7.192;2023-07-20T00:58:47;4.97;;;1.60;;
35959;SDS011;22043;50.970;7.192;2023-07-20T01:01:12;15.20;;;2.30;;
35959;SDS011;22043;50.970;7.192;2023-07-20T01:03:42;3.20;;;1.38;;
35959;SDS011;22043;50.970;7.192;2023-07-20T01:08:39;5.13;;;1.50;;
35959;SDS011;22043;50.970;7.192;2023-07-20T01:11:58;8.13;;;1.77;;
35959;SDS011;22043;50.970;7.192;2023-07-20T01:14:04;5.32;;;1.60;;
35959;SDS011;22043;50.970;7.192;2023-07-20T01:16:30;6.00;;;1.60;;
35959;SDS011;22043;50.970;7.192;2023-07-20T01:18:55;6.03;;;1.50;;
35959;SDS011;22043;50.970;7.192;2023-07-20T01:21:22;3.95;;;1.70;;
35959;SDS011;22043;50.970;7.192;2023-07-20T01:32:45;4.75;;;1.15;;
35959;SDS011;22043;50.970;7.192;2023-07-20T01:35:12;9.10;;;1.50;;
35959;SDS011;22043;50.970;7.192;2023-07-20T01:37:42;3.65;;;1.52;;
35959;SDS011;22043;50.970;7.192;2023-07-20T01:40:09;3.63;;;1.17;;
35959;SDS011;22043;50.970;7.192;2023-07-20T01:42:35;5.60;;;1.88;;
35959;SDS011;22043;50.970;7.192;2023-07-20T01:45:01;4.85;;;1.58;;
35959;SDS011;22043;50.970;7.192;2023-07-20T01:47:27;4.97;;;1.20;;
35959;SDS011;22043;50.970;7.192;2023-07-20T01:49:53;3.92;;;1.55;;
35959;SDS011;22043;50.970;7.192;2023-07-20T01:52:18;2.70;;;1.10;;
35959;SDS011;22043;50.970;7.192;2023-07-20T01:54:44;5.10;;;1.45;;
35959;SDS011;22043;50.970;7.192;2023-07-20T01:57:09;4.60;;;2.05;;
35959;SDS011;22043;50.970;7.192;2023-07-20T01:59:35;4.70;;;1.48;;
35959;SDS011;22043;50.970;7.192;2023-07-20T02:02:00;6.57;;;2.00;;
35959;SDS011;22043;50.970;7.192;2023-07-20T02:04:26;7.03;;;1.60;;
35959;SDS011;22043;50.970;7.192;2023-07-20T02:06:51;5.10;;;1.30;;
35959;SDS011;22043;50.970;7.192;2023-07-20T02:09:16;4.82;;;1.77;;
35959;SDS011;22043;50.970;7.192;2023-07-20T02:11:42;5.10;;;1.55;;
35959;SDS011;22043;50.970;7.192;2023-07-20T02:14:07;5.25;;;1.50;;
35959;SDS011;22043;50.970;7.192;2023-07-20T02:16:33;4.03;;;1.40;;
35959;SDS011;22043;50.970;7.192;2023-07-20T02:18:58;3.90;;;1.55;;
35959;SDS011;22043;50.970;7.192;2023-07-20T02:21:24;4.78;;;1.50;;
35959;SDS011;22043;50.970;7.192;2023-07-20T02:23:49;4.30;;;1.67;;
35959;SDS011;22043;50.970;7.192;2023-07-20T02:26:15;13.88;;;1.95;;
35959;SDS011;22043;50.970;7.192;2023-07-20T02:28:40;3.65;;;1.88;;
35959;SDS011;22043;50.970;7.192;2023-07-20T02:31:06;3.38;;;1.50;;
35959;SDS011;22043;50.970;7.192;2023-07-20T02:33:32;4.57;;;1.73;;
35959;SDS011;22043;50.970;7.192;2023-07-20T02:35:57;5.53;;;1.75;;
35959;SDS011;22043;50.970;7.192;2023-07-20T02:38:23;8.50;;;1.73;;
35959;SDS011;22043;50.970;7.192;2023-07-20T02:40:48;4.43;;;1.77;;
35959;SDS011;22043;50.970;7.192;2023-07-20T02:43:14;3.50;;;1.73;;
35959;SDS011;22043;50.970;7.192;2023-07-20T02:45:40;6.07;;;1.52;;
35959;SDS011;22043;50.970;7.192;2023-07-20T02:48:06;4.25;;;1.35;;
35959;SDS011;22043;50.970;7.192;2023-07-20T02:50:33;4.45;;;1.42;;
35959;SDS011;22043;50.970;7.192;2023-07-20T02:52:59;3.45;;;1.50;;
35959;SDS011;22043;50.970;7.192;2023-07-20T02:55:26;3.65;;;1.33;;
35959;SDS011;22043;50.970;7.192;2023-07-20T02:57:52;7.55;;;1.65;;
35959;SDS011;22043;50.970;7.192;2023-07-20T03:00:17;3.28;;;1.35;;
35959;SDS011;22043;50.970;7.192;2023-07-20T03:02:44;6.55;;;1.65;;
35959;SDS011;22043;50.970;7.192;2023-07-20T03:05:13;2.67;;;1.45;;
35959;SDS011;22043;50.970;7.192;2023-07-20T03:07:39;5.75;;;1.98;;
35959;SDS011;22043;50.970;7.192;2023-07-20T03:10:05;6.43;;;1.50;;
35959;SDS011;22043;50.970;7.192;2023-07-20T03:12:34;3.40;;;1.25;;
35959;SDS011;22043;50.970;7.192;2023-07-20T03:14:59;4.00;;;1.25;;
35959;SDS011;22043;50.970;7.192;2023-07-20T03:17:25;4.05;;;1.50;;
35959;SDS011;22043;50.970;7.192;2023-07-20T03:19:51;3.13;;;1.50;;
35959;SDS011;22043;50.970;7.192;2023-07-20T03:22:17;3.97;;;1.42;;
35959;SDS011;22043;50.970;7.192;2023-07-20T03:24:43;6.45;;;2.00;;
35959;SDS011;22043;50.970;7.192;2023-07-20T03:27:08;7.18;;;2.10;;
35959;SDS011;22043;50.970;7.192;2023-07-20T03:29:34;4.32;;;1.55;;
35959;SDS011;22043;50.970;7.192;2023-07-20T03:32:00;5.13;;;2.00;;
35959;SDS011;22043;50.970;7.192;2023-07-20T03:34:25;6.88;;;1.85;;
35959;SDS011;22043;50.970;7.192;2023-07-20T03:36:51;5.97;;;2.20;;
35959;SDS011;22043;50.970;7.192;2023-07-20T03:39:17;3.78;;;1.63;;
35959;SDS011;22043;50.970;7.192;2023-07-20T03:41:42;5.07;;;2.08;;
35959;SDS011;22043;50.970;7.192;2023-07-20T03:44:08;8.15;;;2.72;;
35959;SDS011;22043;50.970;7.192;2023-07-20T03:46:33;4.55;;;1.70;;
35959;SDS011;22043;50.970;7.192;2023-07-20T03:48:59;5.43;;;2.00;;
35959;SDS011;22043;50.970;7.192;2023-07-20T03:51:25;5.63;;;1.88;;
35959;SDS011;22043;50.970;7.192;2023-07-20T03:53:51;5.25;;;1.73;;
35959;SDS011;22043;50.970;7.192;2023-07-20T03:56:16;6.85;;;2.42;;
35959;SDS011;22043;50.970;7.192;2023-07-20T03:58:42;6.82;;;1.60;;
35959;SDS011;22043;50.970;7.192;2023-07-20T04:01:07;7.85;;;1.48;;
35959;SDS011;22043;50.970;7.192;2023-07-20T04:03:34;5.67;;;1.83;;
35959;SDS011;22043;50.970;7.192;2023-07-20T04:06:00;6.55;;;1.85;;
35959;SDS011;22043;50.970;7.192;2023-07-20T04:08:26;4.40;;;1.52;;
35959;SDS011;22043;50.970;7.192;2023-07-20T04:10:51;3.95;;;1.40;;
35959;SDS011;22043;50.970;7.192;2023-07-20T04:13:17;8.48;;;1.98;;
35959;SDS011;22043;50.970;7.192;2023-07-20T04:15:42;5.78;;;1.90;;
35959;SDS011;22043;50.970;7.192;2023-07-20T04:18:08;5.40;;;1.70;;
35959;SDS011;22043;50.970;7.192;2023-07-20T04:20:33;8.43;;;2.25;;
35959;SDS011;22043;50.970;7.192;2023-07-20T04:22:59;5.13;;;1.55;;
35959;SDS011;22043;50.970;7.192;2023-07-20T04:25:24;5.28;;;1.58;;
35959;SDS011;22043;50.970;7.192;2023-07-20T04:27:50;4.72;;;1.85;;
35959;SDS011;22043;50.970;7.192;2023-07-20T04:30:17;6.40;;;2.42;;
35959;SDS011;22043;50.970;7.192;2023-07-20T04:32:45;7.07;;;2.22;;
35959;SDS011;22043;50.970;7.192;2023-07-20T04:35:17;6.43;;;1.98;;
35959;SDS011;22043;50.970;7.192;2023-07-20T04:37:51;7.72;;;2.17;;
35959;SDS011;22043;50.970;7.192;2023-07-20T04:40:19;9.02;;;2.03;;
35959;SDS011;22043;50.970;7.192;2023-07-20T04:42:44;5.45;;;1.80;;
35959;SDS011;22043;50.970;7.192;2023-07-20T04:45:10;6.75;;;1.83;;
35959;SDS011;22043;50.970;7.192;2023-07-20T04:47:36;7.53;;;2.22;;
35959;SDS011;22043;50.970;7.192;2023-07-20T04:50:02;6.10;;;2.42;;
35959;SDS011;22043;50.970;7.192;2023-07-20T04:52:28;8.60;;;2.78;;
35959;SDS011;22043;50.970;7.192;2023-07-20T04:54:55;5.05;;;2.28;;
35959;SDS011;22043;50.970;7.192;2023-07-20T04:57:23;9.80;;;2.10;;
35959;SDS011;22043;50.970;7.192;2023-07-20T04:59:48;8.83;;;2.17;;
35959;SDS011;22043;50.970;7.192;2023-07-20T05:02:14;8.40;;;2.08;;
35959;SDS011;22043;50.970;7.192;2023-07-20T05:04:39;6.03;;;2.47;;
35959;SDS011;22043;50.970;7.192;2023-07-20T05:07:05;5.07;;;2.00;;
35959;SDS011;22043;50.970;7.192;2023-07-20T05:09:31;4.57;;;1.70;;
35959;SDS011;22043;50.970;7.192;2023-07-20T05:11:58;9.07;;;2.60;;
35959;SDS011;22043;50.970;7.192;2023-07-20T05:14:23;6.30;;;1.67;;
35959;SDS011;22043;50.970;7.192;2023-07-20T05:16:50;6.63;;;2.20;;
35959;SDS011;22043;50.970;7.192;2023-07-20T05:19:16;7.13;;;2.30;;
35959;SDS011;22043;50.970;7.192;2023-07-20T05:21:42;5.97;;;2.63;;
35959;SDS011;22043;50.970;7.192;2023-07-20T05:24:08;6.22;;;2.47;;
35959;SDS011;22043;50.970;7.192;2023-07-20T05:26:33;5.82;;;2.47;;
35959;SDS011;22043;50.970;7.192;2023-07-20T05:28:59;8.43;;;2.40;;
35959;SDS011;22043;50.970;7.192;2023-07-20T05:31:25;6.07;;;2.88;;
35959;SDS011;22043;50.970;7.192;2023-07-20T05:33:51;7.75;;;2.50;;
35959;SDS011;22043;50.970;7.192;2023-07-20T05:36:22;9.13;;;3.28;;
35959;SDS011;22043;50.970;7.192;2023-07-20T05:38:49;15.48;;;4.15;;
35959;SDS011;22043;50.970;7.192;2023-07-20T05:41:14;6.82;;;2.55;;
35959;SDS011;22043;50.970;7.192;2023-07-20T05:43:40;9.40;;;2.70;;
35959;SDS011;22043;50.970;7.192;2023-07-20T05:46:07;6.28;;;2.72;;
35959;SDS011;22043;50.970;7.192;2023-07-20T05:48:32;6.13;;;2.58;;
35959;SDS011;22043;50.970;7.192;2023-07-20T05:50:58;7.07;;;2.95;;
35959;SDS011;22043;50.970;7.192;2023-07-20T05:53:23;13.55;;;3.25;;
35959;SDS011;22043;50.970;7.192;2023-07-20T05:55:52;9.70;;;3.53;;
35959;SDS011;22043;50.970;7.192;2023-07-20T05:58:18;8.10;;;3.10;;
35959;SDS011;22043;50.970;7.192;2023-07-20T06:00:44;8.68;;;3.08;;
35959;SDS011;22043;50.970;7.192;2023-07-20T06:03:09;7.70;;;3.08;;
35959;SDS011;22043;50.970;7.192;2023-07-20T06:05:39;8.52;;;2.80;;
35959;SDS011;22043;50.970;7.192;2023-07-20T06:08:04;5.25;;;2.45;;
35959;SDS011;22043;50.970;7.192;2023-07-20T06:10:30;7.15;;;3.08;;
35959;SDS011;22043;50.970;7.192;2023-07-20T06:12:55;9.13;;;3.72;;
35959;SDS011;22043;50.970;7.192;2023-07-20T06:15:25;6.70;;;3.05;;
35959;SDS011;22043;50.970;7.192;2023-07-20T06:17:51;8.20;;;4.13;;
35959;SDS011;22043;50.970;7.192;2023-07-20T06:20:16;15.27;;;4.57;;
35959;SDS011;22043;50.970;7.192;2023-07-20T06:22:42;9.68;;;3.80;;
35959;SDS011;22043;50.970;7.192;2023-07-20T06:25:09;12.60;;;4.00;;
35959;SDS011;22043;50.970;7.192;2023-07-20T06:27:35;11.45;;;4.18;;
35959;SDS011;22043;50.970;7.192;2023-07-20T06:30:00;8.32;;;4.63;;
35959;SDS011;22043;50.970;7.192;2023-07-20T06:32:26;12.07;;;4.93;;
35959;SDS011;22043;50.970;7.192;2023-07-20T06:34:51;8.05;;;4.32;;
35959;SDS011;22043;50.970;7.192;2023-07-20T06:37:17;13.52;;;6.22;;
35959;SDS011;22043;50.970;7.192;2023-07-20T06:39:42;13.40;;;5.28;;
35959;SDS011;22043;50.970;7.192;2023-07-20T06:42:07;13.57;;;4.32;;
35959;SDS011;22043;50.970;7.192;2023-07-20T06:44:33;10.80;;;4.50;;
35959;SDS011;22043;50.970;7.192;2023-07-20T06:46:58;9.85;;;4.43;;
35959;SDS011;22043;50.970;7.192;2023-07-20T06:49:24;12.13;;;4.93;;
35959;SDS011;22043;50.970;7.192;2023-07-20T06:51:51;7.73;;;4.50;;
35959;SDS011;22043;50.970;7.192;2023-07-20T06:54:16;9.93;;;4.82;;
35959;SDS011;22043;50.970;7.192;2023-07-20T06:56:42;12.43;;;5.03;;
35959;SDS011;22043;50.970;7.192;2023-07-20T06:59:07;12.27;;;5.05;;
35959;SDS011;22043;50.970;7.192;2023-07-20T07:01:33;7.20;;;4.43;;
35959;SDS011;22043;50.970;7.192;2023-07-20T07:03:58;10.50;;;4.78;;
35959;SDS011;22043;50.970;7.192;2023-07-20T07:06:24;10.38;;;4.63;;
35959;SDS011;22043;50.970;7.192;2023-07-20T07:08:49;12.77;;;4.82;;
35959;SDS011;22043;50.970;7.192;2023-07-20T07:11:15;6.85;;;4.05;;
35959;SDS011;22043;50.970;7.192;2023-07-20T07:13:40;11.68;;;4.15;;
35959;SDS011;22043;50.970;7.192;2023-07-20T07:16:05;10.77;;;4.43;;
35959;SDS011;22043;50.970;7.192;2023-07-20T07:18:31;13.73;;;4.40;;
35959;SDS011;22043;50.970;7.192;2023-07-20T07:20:56;9.50;;;4.90;;
35959;SDS011;22043;50.970;7.192;2023-07-20T07:23:22;8.77;;;4.18;;
35959;SDS011;22043;50.970;7.192;2023-07-20T07:25:47;7.85;;;4.60;;
35959;SDS011;22043;50.970;7.192;2023-07-20T07:28:13;9.50;;;4.40;;
35959;SDS011;22043;50.970;7.192;2023-07-20T07:30:38;9.98;;;4.65;;
35959;SDS011;22043;50.970;7.192;2023-07-20T07:33:04;9.00;;;4.78;;
35959;SDS011;22043;50.970;7.192;2023-07-20T07:35:29;7.15;;;4.28;;
35959;SDS011;22043;50.970;7.192;2023-07-20T07:37:55;9.88;;;3.97;;
35959;SDS011;22043;50.970;7.192;2023-07-20T07:40:20;11.48;;;4.70;;
35959;SDS011;22043;50.970;7.192;2023-07-20T07:42:46;8.80;;;4.03;;
35959;SDS011;22043;50.970;7.192;2023-07-20T07:45:12;8.85;;;4.38;;
35959;SDS011;22043;50.970;7.192;2023-07-20T07:47:38;10.82;;;4.35;;
35959;SDS011;22043;50.970;7.192;2023-07-20T07:50:04;9.60;;;4.53;;
35959;SDS011;22043;50.970;7.192;2023-07-20T07:52:30;10.63;;;4.60;;
35959;SDS011;22043;50.970;7.192;2023-07-20T07:54:55;7.97;;;3.83;;
35959;SDS011;22043;50.970;7.192;2023-07-20T07:57:20;5.10;;;3.25;;
35959;SDS011;22043;50.970;7.192;2023-07-20T07:59:46;7.90;;;3.72;;
35959;SDS011;22043;50.970;7.192;2023-07-20T08:02:11;7.45;;;3.75;;
35959;SDS011;22043;50.970;7.192;2023-07-20T08:04:37;6.07;;;3.38;;
35959;SDS011;22043;50.970;7.192;2023-07-20T08:07:10;7.38;;;3.63;;
35959;SDS011;22043;50.970;7.192;2023-07-20T08:09:47;10.20;;;3.20;;
35959;SDS011;22043;50.970;7.192;2023-07-20T08:15:48;4.60;;;2.80;;
35959;SDS011;22043;50.970;7.192;2023-07-20T08:18:16;6.15;;;3.08;;
35959;SDS011;22043;50.970;7.192;2023-07-20T08:20:47;5.00;;;2.50;;
35959;SDS011;22043;50.970;7.192;2023-07-20T08:23:14;5.30;;;3.25;;
35959;SDS011;22043;50.970;7.192;2023-07-20T08:25:40;6.10;;;2.80;;
35959;SDS011;22043;50.970;7.192;2023-07-20T08:28:54;11.30;;;2.65;;
35959;SDS011;22043;50.970;7.192;2023-07-20T08:31:16;5.95;;;2.13;;
35959;SDS011;22043;50.970;7.192;2023-07-20T08:33:42;5.20;;;2.80;;
35959;SDS011;22043;50.970;7.192;2023-07-20T08:36:07;4.97;;;2.22;;
35959;SDS011;22043;50.970;7.192;2023-07-20T08:38:36;4.97;;;2.30;;
35959;SDS011;22043;50.970;7.192;2023-07-20T08:41:01;4.63;;;1.92;;
35959;SDS011;22043;50.970;7.192;2023-07-20T08:43:27;7.47;;;2.50;;
35959;SDS011;22043;50.970;7.192;2023-07-20T08:45:54;5.32;;;2.20;;
35959;SDS011;22043;50.970;7.192;2023-07-20T08:48:23;5.03;;;2.22;;
35959;SDS011;22043;50.970;7.192;2023-07-20T08:50:49;3.78;;;2.10;;
35959;SDS011;22043;50.970;7.192;2023-07-20T08:53:16;2.35;;;1.13;;
35959;SDS011;22043;50.970;7.192;2023-07-20T08:55:43;3.85;;;1.48;;
35959;SDS011;22043;50.970;7.192;2023-07-20T08:58:09;7.43;;;1.55;;
35959;SDS011;22043;50.970;7.192;2023-07-20T09:00:37;2.55;;;1.20;;
35959;SDS011;22043;50.970;7.192;2023-07-20T09:03:03;3.38;;;1.45;;
35959;SDS011;22043;50.970;7.192;2023-07-20T09:05:29;3.22;;;1.35;;
35959;SDS011;22043;50.970;7.192;2023-07-20T09:07:55;3.30;;;1.23;;
35959;SDS011;22043;50.970;7.192;2023-07-20T09:10:20;2.65;;;1.30;;
35959;SDS011;22043;50.970;7.192;2023-07-20T09:12:46;3.90;;;1.10;;
35959;SDS011;22043;50.970;7.192;2023-07-20T09:15:12;4.25;;;0.90;;
35959;SDS011;22043;50.970;7.192;2023-07-20T09:17:38;3.97;;;1.45;;
35959;SDS011;22043;50.970;7.192;2023-07-20T09:20:07;2.10;;;1.02;;
35959;SDS011;22043;50.970;7.192;2023-07-20T09:22:35;2.05;;;1.10;;
35959;SDS011;22043;50.970;7.192;2023-07-20T09:25:05;2.28;;;1.35;;
35959;SDS011;22043;50.970;7.192;2023-07-20T09:27:39;3.35;;;1.20;;
35959;SDS011;22043;50.970;7.192;2023-07-20T09:30:05;3.95;;;1.08;;
35959;SDS011;22043;50.970;7.192;2023-07-20T09:32:40;2.90;;;0.95;;
35959;SDS011;22043;50.970;7.192;2023-07-20T09:35:18;3.08;;;0.93;;
35959;SDS011;22043;50.970;7.192;2023-07-20T09:37:54;1.65;;;0.85;;
35959;SDS011;22043;50.970;7.192;2023-07-20T09:40:20;3.47;;;0.65;;
35959;SDS011;22043;50.970;7.192;2023-07-20T09:42:46;3.13;;;0.70;;
35959;SDS011;22043;50.970;7.192;2023-07-20T09:45:12;4.35;;;0.77;;
35959;SDS011;22043;50.970;7.192;2023-07-20T09:47:38;1.88;;;0.80;;
35959;SDS011;22043;50.970;7.192;2023-07-20T09:50:04;2.05;;;1.00;;
35959;SDS011;22043;50.970;7.192;2023-07-20T09:52:35;3.80;;;1.40;;
35959;SDS011;22043;50.970;7.192;2023-07-20T09:57:28;2.85;;;1.00;;
35959;SDS011;22043;50.970;7.192;2023-07-20T09:59:54;3.47;;;1.10;;
35959;SDS011;22043;50.970;7.192;2023-07-20T10:02:21;4.07;;;1.10;;
35959;SDS011;22043;50.970;7.192;2023-07-20T10:04:55;1.65;;;0.65;;
35959;SDS011;22043;50.970;7.192;2023-07-20T10:07:21;2.67;;;0.80;;
35959;SDS011;22043;50.970;7.192;2023-07-20T10:09:48;2.22;;;1.00;;
35959;SDS011;22043;50.970;7.192;2023-07-20T10:12:17;2.33;;;0.70;;
35959;SDS011;22043;50.970;7.192;2023-07-20T10:14:44;1.85;;;1.05;;
35959;SDS011;22043;50.970;7.192;2023-07-20T10:17:18;1.92;;;0.70;;
35959;SDS011;22043;50.970;7.192;2023-07-20T10:19:46;3.20;;;1.15;;
35959;SDS011;22043;50.970;7.192;2023-07-20T10:22:31;4.07;;;1.17;;
35959;SDS011;22043;50.970;7.192;2023-07-20T10:25:00;0.88;;;0.60;;
35959;SDS011;22043;50.970;7.192;2023-07-20T10:27:26;2.42;;;1.00;;
35959;SDS011;22043;50.970;7.192;2023-07-20T10:29:52;0.77;;;0.50;;
35959;SDS011;22043;50.970;7.192;2023-07-20T10:32:20;2.05;;;0.77;;
35959;SDS011;22043;50.970;7.192;2023-07-20T10:34:52;1.48;;;0.52;;
35959;SDS011;22043;50.970;7.192;2023-07-20T10:40:23;1.55;;;0.70;;
35959;SDS011;22043;50.970;7.192;2023-07-20T10:43:00;1.60;;;0.82;;
35959;SDS011;22043;50.970;7.192;2023-07-20T10:45:33;2.40;;;1.00;;
35959;SDS011;22043;50.970;7.192;2023-07-20T10:48:18;4.03;;;1.23;;
35959;SDS011;22043;50.970;7.192;2023-07-20T10:50:45;5.43;;;0.93;;
35959;SDS011;22043;50.970;7.192;2023-07-20T10:55:38;1.77;;;0.77;;
35959;SDS011;22043;50.970;7.192;2023-07-20T10:58:08;2.83;;;1.00;;
35959;SDS011;22043;50.970;7.192;2023-07-20T11:00:35;1.67;;;0.85;;
35959;SDS011;22043;50.970;7.192;2023-07-20T11:03:00;2.75;;;0.80;;
35959;SDS011;22043;50.970;7.192;2023-07-20T11:08:05;2.50;;;0.60;;
35959;SDS011;22043;50.970;7.192;2023-07-20T11:10:34;4.13;;;1.27;;
35959;SDS011;22043;50.970;7.192;2023-07-20T11:13:16;2.67;;;0.63;;
35959;SDS011;22043;50.970;7.192;2023-07-20T11:15:45;1.20;;;0.60;;
35959;SDS011;22043;50.970;7.192;2023-07-20T11:18:12;1.27;;;0.57;;
35959;SDS011;22043;50.970;7.192;2023-07-20T11:20:37;1.35;;;0.73;;
35959;SDS011;22043;50.970;7.192;2023-07-20T11:23:03;2.60;;;0.80;;
35959;SDS011;22043;50.970;7.192;2023-07-20T11:25:35;1.35;;;0.40;;
35959;SDS011;22043;50.970;7.192;2023-07-20T11:28:05;2.55;;;0.90;;
35959;SDS011;22043;50.970;7.192;2023-07-20T11:30:32;2.35;;;0.50;;
35959;SDS011;22043;50.970;7.192;2023-07-20T11:32:58;1.88;;;0.47;;
35959;SDS011;22043;50.970;7.192;2023-07-20T11:35:24;6.53;;;0.70;;
35959;SDS011;22043;50.970;7.192;2023-07-20T11:37:49;1.67;;;0.70;;
35959;SDS011;22043;50.970;7.192;2023-07-20T11:40:15;1.25;;;0.55;;
35959;SDS011;22043;50.970;7.192;2023-07-20T11:42:40;0.88;;;0.50;;
35959;SDS011;22043;50.970;7.192;2023-07-20T11:45:06;1.40;;;0.60;;
35959;SDS011;22043;50.970;7.192;2023-07-20T11:47:32;2.90;;;0.50;;
35959;SDS011;22043;50.970;7.192;2023-07-20T11:50:02;0.80;;;0.50;;
35959;SDS011;22043;50.970;7.192;2023-07-20T11:52:28;1.85;;;0.40;;
35959;SDS011;22043;50.970;7.192;2023-07-20T11:54:54;1.02;;;0.50;;
35959;SDS011;22043;50.970;7.192;2023-07-20T11:57:20;1.63;;;0.60;;
35959;SDS011;22043;50.970;7.192;2023-07-20T11:59:58;2.47;;;0.38;;
35959;SDS011;22043;50.970;7.192;2023-07-20T12:02:30;2.83;;;0.60;;
35959;SDS011;22043;50.970;7.192;2023-07-20T12:04:56;1.25;;;0.52;;
35959;SDS011;22043;50.970;7.192;2023-07-20T12:07:22;1.15;;;0.55;;
35959;SDS011;22043;50.970;7.192;2023-07-20T12:10:05;0.98;;;0.40;;
35959;SDS011;22043;50.970;7.192;2023-07-20T12:12:38;1.38;;;0.63;;
35959;SDS011;22043;50.970;7.192;2023-07-20T12:15:15;1.90;;;0.40;;
35959;SDS011;22043;50.970;7.192;2023-07-20T12:17:44;1.25;;;0.50;;
35959;SDS011;22043;50.970;7.192;2023-07-20T12:20:09;1.58;;;0.30;;
35959;SDS011;22043;50.970;7.192;2023-07-20T12:22:43;1.90;;;0.30;;
35959;SDS011;22043;50.970;7.192;2023-07-20T12:25:08;1.58;;;0.40;;
35959;SDS011;22043;50.970;7.192;2023-07-20T12:27:37;1.35;;;0.30;;
35959;SDS011;22043;50.970;7.192;2023-07-20T12:30:04;1.25;;;0.50;;
35959;SDS011;22043;50.970;7.192;2023-07-20T12:32:31;0.95;;;0.63;;
35959;SDS011;22043;50.970;7.192;2023-07-20T12:34:56;1.05;;;0.50;;
35959;SDS011;22043;50.970;7.192;2023-07-20T12:37:21;1.10;;;0.40;;
35959;SDS011;22043;50.970;7.192;2023-07-20T12:39:47;2.08;;;0.60;;
35959;SDS011;22043;50.970;7.192;2023-07-20T12:42:12;0.95;;;0.32;;
35959;SDS011;22043;50.970;7.192;2023-07-20T12:44:40;0.50;;;0.30;;
35959;SDS011;22043;50.970;7.192;2023-07-20T12:47:05;1.33;;;0.50;;
35959;SDS011;22043;50.970;7.192;2023-07-20T12:49:31;1.08;;;0.30;;
35959;SDS011;22043;50.970;7.192;2023-07-20T12:52:02;1.27;;;0.50;;
35959;SDS011;22043;50.970;7.192;2023-07-20T12:54:28;1.20;;;0.57;;
35959;SDS011;22043;50.970;7.192;2023-07-20T12:56:53;2.78;;;0.50;;
35959;SDS011;22043;50.970;7.192;2023-07-20T12:59:19;1.48;;;0.55;;
35959;SDS011;22043;50.970;7.192;2023-07-20T13:01:44;4.65;;;0.70;;
35959;SDS011;22043;50.970;7.192;2023-07-20T13:04:10;2.13;;;0.52;;
35959;SDS011;22043;50.970;7.192;2023-07-20T13:06:35;1.95;;;0.40;;
35959;SDS011;22043;50.970;7.192;2023-07-20T13:09:01;1.60;;;0.70;;
35959;SDS011;22043;50.970;7.192;2023-07-20T13:11:26;2.53;;;0.50;;
35959;SDS011;22043;50.970;7.192;2023-07-20T13:13:52;1.60;;;0.60;;
35959;SDS011;22043;50.970;7.192;2023-07-20T13:16:17;2.33;;;0.40;;
35959;SDS011;22043;50.970;7.192;2023-07-20T13:18:43;0.50;;;0.40;;
35959;SDS011;22043;50.970;7.192;2023-07-20T13:21:08;1.15;;;0.45;;
35959;SDS011;22043;50.970;7.192;2023-07-20T13:23:36;1.08;;;0.60;;
35959;SDS011;22043;50.970;7.192;2023-07-20T13:26:02;2.55;;;0.60;;
35959;SDS011;22043;50.970;7.192;2023-07-20T13:28:30;2.00;;;0.45;;
35959;SDS011;22043;50.970;7.192;2023-07-20T13:30:56;3.13;;;0.40;;
35959;SDS011;22043;50.970;7.192;2023-07-20T13:33:21;2.17;;;0.45;;
35959;SDS011;22043;50.970;7.192;2023-07-20T13:35:47;0.88;;;0.38;;
35959;SDS011;22043;50.970;7.192;2023-07-20T13:38:12;3.05;;;0.40;;
35959;SDS011;22043;50.970;7.192;2023-07-20T13:40:38;0.82;;;0.30;;
35959;SDS011;22043;50.970;7.192;2023-07-20T13:43:03;0.95;;;0.40;;
35959;SDS011;22043;50.970;7.192;2023-07-20T13:45:29;0.70;;;0.30;;
35959;SDS011;22043;50.970;7.192;2023-07-20T13:47:54;1.08;;;0.40;;
35959;SDS011;22043;50.970;7.192;2023-07-20T13:50:19;2.55;;;0.50;;
35959;SDS011;22043;50.970;7.192;2023-07-20T13:52:45;0.95;;;0.45;;
35959;SDS011;22043;50.970;7.192;2023-07-20T13:55:10;6.47;;;1.00;;
35959;SDS011;22043;50.970;7.192;2023-07-20T13:57:36;0.95;;;0.40;;
35959;SDS011;22043;50.970;7.192;2023-07-20T14:00:02;1.20;;;0.40;;
35959;SDS011;22043;50.970;7.192;2023-07-20T14:02:37;1.15;;;0.52;;
35959;SDS011;22043;50.970;7.192;2023-07-20T14:05:02;1.15;;;0.60;;
35959;SDS011;22043;50.970;7.192;2023-07-20T14:07:28;2.63;;;0.40;;
35959;SDS011;22043;50.970;7.192;2023-07-20T14:09:53;1.88;;;0.52;;
35959;SDS011;22043;50.970;7.192;2023-07-20T14:12:19;2.38;;;0.50;;
35959;SDS011;22043;50.970;7.192;2023-07-20T14:14:44;2.05;;;0.73;;
35959;SDS011;22043;50.970;7.192;2023-07-20T14:17:10;2.08;;;0.50;;
35959;SDS011;22043;50.970;7.192;2023-07-20T14:19:37;2.35;;;0.55;;
35959;SDS011;22043;50.970;7.192;2023-07-20T14:22:02;3.80;;;0.60;;
35959;SDS011;22043;50.970;7.192;2023-07-20T14:24:29;1.23;;;0.40;;
35959;SDS011;22043;50.970;7.192;2023-07-20T14:26:54;1.45;;;0.50;;
35959;SDS011;22043;50.970;7.192;2023-07-20T14:29:20;0.90;;;0.30;;
35959;SDS011;22043;50.970;7.192;2023-07-20T14:31:46;1.15;;;0.40;;
35959;SDS011;22043;50.970;7.192;2023-07-20T14:34:16;1.08;;;0.43;;
35959;SDS011;22043;50.970;7.192;2023-07-20T14:36:41;0.65;;;0.40;;
35959;SDS011;22043;50.970;7.192;2023-07-20T14:39:07;1.95;;;0.40;;
35959;SDS011;22043;50.970;7.192;2023-07-20T14:41:32;1.52;;;0.43;;
35959;SDS011;22043;50.970;7.192;2023-07-20T14:43:58;2.38;;;0.50;;
35959;SDS011;22043;50.970;7.192;2023-07-20T14:46:23;3.17;;;0.73;;
35959;SDS011;22043;50.970;7.192;2023-07-20T14:48:48;0.55;;;0.50;;
35959;SDS011;22043;50.970;7.192;2023-07-20T14:51:14;2.85;;;0.60;;
35959;SDS011;22043;50.970;7.192;2023-07-20T14:53:40;1.17;;;0.50;;
35959;SDS011;22043;50.970;7.192;2023-07-20T14:56:05;1.02;;;0.50;;
35959;SDS011;22043;50.970;7.192;2023-07-20T14:58:31;3.22;;;0.60;;
35959;SDS011;22043;50.970;7.192;2023-07-20T15:00:56;3.72;;;0.60;;
35959;SDS011;22043;50.970;7.192;2023-07-20T15:03:22;0.80;;;0.30;;
35959;SDS011;22043;50.970;7.192;2023-07-20T15:05:47;2.75;;;0.50;;
35959;SDS011;22043;50.970;7.192;2023-07-20T15:08:13;3.40;;;0.52;;